createdAt,value
2023-01-08T00:01:15.792Z,12.18
2023-01-08T00:06:18.322Z,7.57
2023-01-08T00:11:19.773Z,12.77
2023-01-08T00:16:21.357Z,10.07
2023-01-08T00:21:22.983Z,8.60
2023-01-08T00:26:25.139Z,5.80
2023-01-08T00:31:26.616Z,6.95
2023-01-08T00:36:28.149Z,7.88
2023-01-08T00:41:29.697Z,9.15
2023-01-08T00:46:31.194Z,6.35
2023-01-08T00:51:32.725Z,7.70
2023-01-08T00:56:34.181Z,4.13
2023-01-08T01:01:35.787Z,5.28
2023-01-08T01:06:37.797Z,2.85
2023-01-08T01:11:39.276Z,5.32
2023-01-08T01:16:41.823Z,2.90
2023-01-08T01:21:43.417Z,6.43
2023-01-08T01:26:45.428Z,3.72
2023-01-08T01:31:46.934Z,3.83
2023-01-08T01:36:48.462Z,2.92
2023-01-08T01:41:49.949Z,2.72
2023-01-08T01:46:51.489Z,2.70
2023-01-08T01:51:53.907Z,2.45
2023-01-08T01:56:55.742Z,2.88
2023-01-08T02:01:58.075Z,4.30
2023-01-08T02:07:02.108Z,3.13
2023-01-08T02:12:18.003Z,2.90
2023-01-08T02:17:39.843Z,3.42
2023-01-08T02:23:04.541Z,4.20
2023-01-08T02:28:09.442Z,2.33
2023-01-08T02:33:11.833Z,2.65
2023-01-08T02:38:14.661Z,1.58
2023-01-08T02:43:26.523Z,3.70
2023-01-08T02:48:37.932Z,2.38
2023-01-08T02:53:43.947Z,1.38
2023-01-08T02:58:48.047Z,1.75
2023-01-08T03:03:51.432Z,1.27
2023-01-08T03:08:53.794Z,1.42
2023-01-08T03:14:07.377Z,1.05
2023-01-08T03:19:12.357Z,1.45
2023-01-08T03:24:15.443Z,1.08
2023-01-08T03:29:19.158Z,0.93
2023-01-08T03:34:21.599Z,0.65
2023-01-08T03:39:28.535Z,0.88
2023-01-08T03:44:30.112Z,1.38
2023-01-08T03:49:31.881Z,1.33
2023-01-08T03:54:34.295Z,2.20
2023-01-08T03:59:35.771Z,0.30
2023-01-08T04:04:37.356Z,1.45
2023-01-08T04:09:39.007Z,0.70
2023-01-08T04:14:40.558Z,0.93
2023-01-08T04:19:42.037Z,1.25
2023-01-08T04:24:43.538Z,0.80
2023-01-08T04:29:45.009Z,2.28
2023-01-08T04:34:46.477Z,1.98
2023-01-08T04:39:48.005Z,1.85
2023-01-08T04:44:49.474Z,1.30
2023-01-08T04:49:50.923Z,0.40
2023-01-08T04:54:52.472Z,2.20
2023-01-08T04:59:53.912Z,0.47
2023-01-08T05:04:55.514Z,0.60
2023-01-08T05:09:57.363Z,1.17
2023-01-08T05:14:58.871Z,0.98
2023-01-08T05:20:00.472Z,1.58
2023-01-08T05:25:01.953Z,2.28
2023-01-08T05:30:03.581Z,0.82
2023-01-08T05:35:05.233Z,1.92
2023-01-08T05:40:06.891Z,1.88
2023-01-08T05:45:08.659Z,2.88
2023-01-08T05:50:10.294Z,0.98
2023-01-08T05:55:11.866Z,0.90
2023-01-08T06:00:13.837Z,0.93
2023-01-08T06:05:15.449Z,2.60
2023-01-08T06:10:17.211Z,2.35
2023-01-08T06:15:18.834Z,0.95
2023-01-08T06:20:20.354Z,3.53
2023-01-08T06:25:21.896Z,2.20
2023-01-08T06:30:23.406Z,7.10
2023-01-08T06:35:25.422Z,1.10
2023-01-08T06:40:26.945Z,1.65
2023-01-08T06:45:28.438Z,2.40
2023-01-08T06:50:30.346Z,1.75
2023-01-08T06:55:31.832Z,2.60
2023-01-08T07:00:33.311Z,1.60
2023-01-08T07:05:35.580Z,2.83
2023-01-08T07:10:37.394Z,3.25
2023-01-08T07:15:42.412Z,6.82
2023-01-08T07:20:43.907Z,1.83
2023-01-08T07:25:45.410Z,3.72
2023-01-08T07:30:46.962Z,2.90
2023-01-08T07:35:55.291Z,2.80
2023-01-08T07:40:59.808Z,3.13
2023-01-08T07:46:04.719Z,1.95
2023-01-08T07:51:07.237Z,2.22
2023-01-08T07:56:10.620Z,4.00
2023-01-08T08:01:12.408Z,4.22
2023-01-08T08:06:14.084Z,4.47
2023-01-08T08:11:15.683Z,3.03
2023-01-08T08:16:17.304Z,3.92
2023-01-08T08:21:18.867Z,3.97
2023-01-08T08:26:21.890Z,5.20
2023-01-08T08:31:23.537Z,6.55
2023-01-08T08:36:29.169Z,5.28
2023-01-08T08:41:30.764Z,2.88
2023-01-08T08:46:32.380Z,1.08
2023-01-08T08:51:33.879Z,2.08
2023-01-08T08:56:35.348Z,2.83
2023-01-08T09:01:36.928Z,1.90
2023-01-08T09:06:38.690Z,2.72
2023-01-08T09:11:40.150Z,4.55
2023-01-08T09:16:41.747Z,5.40
2023-01-08T09:21:43.208Z,7.10
2023-01-08T09:26:44.673Z,5.25
2023-01-08T09:31:46.861Z,7.75
2023-01-08T09:36:48.365Z,4.50
2023-01-08T09:41:50.717Z,5.40
2023-01-08T09:46:54.700Z,7.20
2023-01-08T09:51:56.247Z,6.47
2023-01-08T09:56:59.266Z,6.75
2023-01-08T10:02:01.000Z,10.30
2023-01-08T10:07:06.811Z,12.90
2023-01-08T10:12:11.580Z,10.07
2023-01-08T10:17:17.518Z,13.65
2023-01-08T10:22:20.836Z,16.60
2023-01-08T10:27:23.417Z,11.48
2023-01-08T10:32:30.077Z,15.35
2023-01-08T10:37:32.964Z,14.95
2023-01-08T10:42:35.673Z,15.43
2023-01-08T10:47:37.346Z,17.35
2023-01-08T10:52:38.840Z,18.55
2023-01-08T10:57:41.349Z,14.90
2023-01-08T11:02:42.880Z,21.17
2023-01-08T11:07:50.293Z,17.15
2023-01-08T11:12:59.267Z,17.42
2023-01-08T11:18:16.747Z,17.63
2023-01-08T11:23:18.363Z,18.33
2023-01-08T11:28:25.910Z,15.60
2023-01-08T11:33:28.717Z,16.10
2023-01-08T11:38:30.237Z,20.08
2023-01-08T11:43:34.532Z,22.30
2023-01-08T11:48:36.082Z,23.58
2023-01-08T11:53:47.623Z,19.95
2023-01-08T11:59:09.309Z,22.42
2023-01-08T12:04:21.876Z,19.83
2023-01-08T12:09:32.579Z,25.73
2023-01-08T12:14:39.640Z,21.20
2023-01-08T12:19:59.893Z,21.42
2023-01-08T12:25:01.347Z,30.10
2023-01-08T12:30:32.440Z,22.92
2023-01-08T12:35:39.768Z,21.73
2023-01-08T12:40:51.181Z,27.95
2023-01-08T12:45:54.376Z,21.50
2023-01-08T12:51:04.912Z,25.38
2023-01-08T12:56:11.878Z,26.92
2023-01-08T13:01:29.481Z,28.92
2023-01-08T13:06:31.307Z,22.35
2023-01-08T13:11:34.836Z,27.05
2023-01-08T13:16:44.686Z,23.27
2023-01-08T13:21:51.543Z,32.50
2023-01-08T13:26:53.666Z,29.55
2023-01-08T13:31:55.216Z,22.27
2023-01-08T13:36:57.789Z,23.73
2023-01-08T13:42:00.575Z,32.70
2023-01-08T13:47:03.053Z,29.67
2023-01-08T13:52:05.455Z,26.45
2023-01-08T13:57:18.052Z,31.05
2023-01-08T14:02:33.279Z,25.85
2023-01-08T14:07:38.516Z,23.90
2023-01-08T14:12:40.314Z,25.30
2023-01-08T14:17:43.522Z,29.60
2023-01-08T14:22:45.015Z,28.08
2023-01-08T14:27:54.652Z,35.70
2023-01-08T14:32:57.269Z,27.23
2023-01-08T14:38:00.188Z,29.25
2023-01-08T14:43:03.687Z,34.33
2023-01-08T14:48:12.901Z,36.45
2023-01-08T14:53:25.880Z,30.00
2023-01-08T14:58:29.087Z,26.08
2023-01-08T15:03:37.736Z,27.13
2023-01-08T15:08:40.697Z,28.40
2023-01-08T15:13:42.202Z,34.75
2023-01-08T15:18:48.041Z,28.55
2023-01-08T15:23:51.598Z,26.63
2023-01-08T15:29:04.532Z,21.80
2023-01-08T15:34:08.006Z,25.42
2023-01-08T15:39:09.502Z,29.23
2023-01-08T15:44:15.376Z,22.58
2023-01-08T15:49:16.914Z,23.50
2023-01-08T15:54:19.429Z,20.13
2023-01-08T15:59:20.906Z,15.82
2023-01-08T16:04:23.058Z,19.50
2023-01-08T16:09:24.597Z,15.88
2023-01-08T16:14:26.126Z,18.50
2023-01-08T16:19:29.291Z,14.15
2023-01-08T16:24:30.758Z,15.13
2023-01-08T16:29:32.359Z,13.00
2023-01-08T16:34:33.927Z,12.93
2023-01-08T16:39:35.458Z,9.77
2023-01-08T16:44:37.103Z,7.45
2023-01-08T16:49:40.389Z,10.70
2023-01-08T16:54:43.207Z,13.90
2023-01-08T16:59:44.747Z,10.98
2023-01-08T17:04:46.621Z,11.02
2023-01-08T17:09:48.165Z,15.38
2023-01-08T17:14:50.311Z,8.32
2023-01-08T17:19:51.759Z,14.48
2023-01-08T17:24:53.329Z,9.93
2023-01-08T17:29:54.773Z,13.75
2023-01-08T17:34:56.385Z,17.05
2023-01-08T17:39:58.003Z,13.63
2023-01-08T17:45:03.360Z,13.65
2023-01-08T17:50:06.020Z,12.80
2023-01-08T17:55:07.805Z,10.25
2023-01-08T18:00:09.683Z,10.40
2023-01-08T18:05:11.595Z,9.93
2023-01-08T18:10:13.176Z,13.63
2023-01-08T18:15:16.679Z,12.93
2023-01-08T18:20:18.419Z,9.25
2023-01-08T18:25:20.163Z,11.65
2023-01-08T18:30:21.850Z,14.38
2023-01-08T18:35:23.328Z,10.30
2023-01-08T18:40:25.005Z,9.25
2023-01-08T18:45:26.503Z,7.07
2023-01-08T18:50:28.079Z,9.85
2023-01-08T18:55:29.746Z,12.35
2023-01-08T19:00:31.536Z,14.18
2023-01-08T19:05:33.187Z,8.35
2023-01-08T19:10:38.744Z,12.90
2023-01-08T19:15:40.300Z,12.25
2023-01-08T19:20:43.491Z,11.77
2023-01-08T19:25:45.113Z,8.32
2023-01-08T19:30:53.700Z,10.68
2023-01-08T19:35:55.183Z,8.25
2023-01-08T19:40:57.345Z,8.43
2023-01-08T19:46:08.217Z,7.72
2023-01-08T19:51:10.360Z,7.78
2023-01-08T19:56:13.121Z,8.82
2023-01-08T20:01:14.737Z,7.60
2023-01-08T20:06:19.718Z,7.05
2023-01-08T20:11:22.416Z,8.20
2023-01-08T20:16:24.603Z,9.20
2023-01-08T20:21:26.266Z,6.47
2023-01-08T20:26:28.589Z,5.05
2023-01-08T20:31:31.273Z,6.55
2023-01-08T20:36:33.585Z,9.65
2023-01-08T20:41:35.098Z,7.07
2023-01-08T20:46:37.970Z,6.07
2023-01-08T20:51:42.370Z,5.90
2023-01-08T20:56:45.672Z,4.47
2023-01-08T21:01:47.167Z,3.72
2023-01-08T21:06:48.830Z,5.63
2023-01-08T21:11:50.907Z,5.75
2023-01-08T21:16:52.428Z,6.13
2023-01-08T21:21:53.913Z,6.35
2023-01-08T21:26:55.469Z,5.43
2023-01-08T21:31:57.504Z,5.70
2023-01-08T21:37:02.382Z,4.80
2023-01-08T21:42:22.596Z,5.50
2023-01-08T21:47:24.070Z,5.05
2023-01-08T21:52:43.761Z,7.00
2023-01-08T21:57:45.374Z,5.23
2023-01-08T22:02:47.044Z,6.07
2023-01-08T22:07:48.843Z,7.60
2023-01-08T22:12:50.318Z,10.90
2023-01-08T22:17:51.794Z,7.13
2023-01-08T22:22:53.297Z,8.55
2023-01-08T22:27:56.262Z,10.30
2023-01-08T22:32:57.723Z,8.82
2023-01-08T22:37:59.362Z,5.63
2023-01-08T22:43:00.879Z,6.28
2023-01-08T22:48:02.458Z,7.03
2023-01-08T22:53:03.983Z,7.47
2023-01-08T22:58:05.534Z,6.30
2023-01-08T23:03:07.037Z,6.03
2023-01-08T23:08:08.858Z,9.25
2023-01-08T23:13:10.371Z,9.65
2023-01-08T23:18:11.876Z,5.65
2023-01-08T23:23:13.401Z,7.78
2023-01-08T23:28:14.873Z,5.95
2023-01-08T23:33:16.376Z,6.03
2023-01-08T23:38:17.943Z,5.75
2023-01-08T23:43:19.535Z,6.60
2023-01-08T23:48:21.157Z,6.43
2023-01-08T23:53:23.068Z,5.15
2023-01-08T23:58:24.980Z,3.25
